Time;durP1;ratioP1;P1;durP2;ratioP2;P2;SDS_P1;SDS_P2;PMS_P1;PMS_P2;Temp;Humidity;BMP_temperature;BMP_pressure;BME280_temperature;BME280_humidity;BME280_pressure;Samples;Min_cycle;Max_cycle;Signal;HPM_P1;HPM_P2
2023/03/11 00:01:09;;;;;;;10.93;4.63;;;2.30;99.90;;;;;;5056324;28;20290;-80
2023/03/11 00:03:36;;;;;;;8.70;5.60;;;2.20;99.90;;;;;;5068296;28;20265;-79
2023/03/11 00:06:04;;;;;;;5.18;3.28;;;2.20;99.90;;;;;;5066909;28;20269;-79
2023/03/11 00:08:32;;;;;;;5.95;4.45;;;2.20;99.90;;;;;;5058364;28;20328;-79
2023/03/11 00:11:00;;;;;;;7.43;5.35;;;2.20;99.90;;;;;;5066819;28;20290;-79
2023/03/11 00:13:30;;;;;;;6.15;3.80;;;2.30;99.90;;;;;;5063578;28;20291;-79
2023/03/11 00:15:58;;;;;;;10.32;4.82;;;2.30;99.90;;;;;;5050471;28;20215;-77
2023/03/11 00:18:30;;;;;;;8.90;4.38;;;2.30;99.90;;;;;;5059419;28;20227;-78
2023/03/11 00:20:58;;;;;;;9.30;4.55;;;2.40;99.90;;;;;;5061410;28;20224;-78
2023/03/11 00:23:26;;;;;;;9.32;4.63;;;2.40;99.90;;;;;;5066486;28;20254;-78
2023/03/11 00:25:53;;;;;;;5.72;4.20;;;2.40;99.90;;;;;;5061531;28;20254;-79
2023/03/11 00:28:24;;;;;;;6.20;3.97;;;2.20;99.90;;;;;;5057776;28;20223;-78
2023/03/11 00:30:52;;;;;;;7.18;4.70;;;2.20;99.90;;;;;;5057671;28;20192;-79
2023/03/11 00:33:19;;;;;;;6.68;4.95;;;2.20;99.90;;;;;;5051278;28;20196;-79
2023/03/11 00:35:46;;;;;;;6.85;5.07;;;2.10;99.90;;;;;;5067142;28;20195;-80
2023/03/11 00:38:15;;;;;;;10.77;5.60;;;2.10;99.90;;;;;;5060581;28;20568;-77
2023/03/11 00:40:43;;;;;;;7.95;5.88;;;2.20;99.90;;;;;;5057023;28;20307;-78
2023/03/11 00:43:11;;;;;;;9.30;6.15;;;2.20;99.90;;;;;;5060903;28;20251;-78
2023/03/11 00:45:38;;;;;;;7.55;5.53;;;2.20;99.90;;;;;;5056002;28;20271;-79
2023/03/11 00:48:07;;;;;;;9.85;5.15;;;2.20;99.90;;;;;;5061819;28;20276;-79
2023/03/11 00:50:37;;;;;;;9.30;5.63;;;2.30;99.90;;;;;;5055812;28;20210;-77
2023/03/11 00:53:05;;;;;;;12.38;5.93;;;2.30;99.90;;;;;;5057696;28;20207;-78
2023/03/11 00:55:34;;;;;;;5.82;4.60;;;2.20;99.90;;;;;;5069651;28;20199;-79
2023/03/11 00:58:02;;;;;;;7.03;4.40;;;2.30;99.90;;;;;;5063557;28;20196;-79
2023/03/11 01:00:30;;;;;;;4.80;3.90;;;2.30;99.90;;;;;;5049922;28;20212;-79
2023/03/11 01:02:58;;;;;;;9.88;3.92;;;2.30;99.90;;;;;;5063610;28;20204;-78
2023/03/11 01:05:29;;;;;;;7.55;3.97;;;2.10;99.90;;;;;;5073489;28;20231;-76
2023/03/11 01:07:56;;;;;;;6.28;3.30;;;2.30;99.90;;;;;;5071163;28;20185;-76
2023/03/11 01:10:23;;;;;;;4.80;3.00;;;2.30;99.90;;;;;;5069801;28;20207;-79
2023/03/11 01:12:52;;;;;;;4.53;3.20;;;2.30;99.90;;;;;;5081729;28;20195;-78
2023/03/11 01:15:22;;;;;;;3.60;2.60;;;2.30;99.90;;;;;;5083531;28;20257;-77
2023/03/11 01:17:49;;;;;;;4.80;3.80;;;2.40;99.90;;;;;;5061131;28;20207;-76
2023/03/11 01:20:16;;;;;;;5.97;2.97;;;2.40;99.90;;;;;;5070677;28;20255;-77
2023/03/11 01:22:44;;;;;;;9.52;2.90;;;2.30;99.90;;;;;;5077893;28;20199;-78
2023/03/11 01:25:14;;;;;;;5.65;2.47;;;2.50;99.90;;;;;;5068468;28;20248;-78
2023/03/11 01:27:41;;;;;;;7.68;3.05;;;2.50;99.90;;;;;;5073330;28;20212;-75
2023/03/11 01:30:09;;;;;;;5.20;2.40;;;2.50;99.90;;;;;;5068790;28;20252;-77
2023/03/11 01:32:36;;;;;;;4.05;2.70;;;2.50;99.90;;;;;;5052655;28;20204;-77
2023/03/11 01:35:03;;;;;;;5.18;3.15;;;2.50;99.90;;;;;;5036576;28;20208;-77
2023/03/11 01:37:30;;;;;;;5.25;2.60;;;2.50;99.90;;;;;;5066457;28;20671;-77
2023/03/11 01:39:59;;;;;;;4.85;2.80;;;2.50;99.90;;;;;;5071136;28;20283;-78
2023/03/11 01:42:26;;;;;;;6.00;3.55;;;2.40;99.90;;;;;;5057618;28;20200;-78
2023/03/11 01:44:54;;;;;;;4.53;3.80;;;2.40;99.90;;;;;;5065081;28;20234;-78
2023/03/11 01:47:35;;;;;;;6.03;3.20;;;2.30;99.90;;;;;;5061049;28;20205;-77
2023/03/11 01:50:04;;;;;;;4.25;2.97;;;2.30;99.90;;;;;;5050039;28;20297;-79
2023/03/11 01:52:31;;;;;;;7.60;2.88;;;2.30;99.90;;;;;;5068856;28;20230;-78
2023/03/11 01:54:59;;;;;;;8.32;4.40;;;2.30;99.90;;;;;;5060132;28;20383;-78
2023/03/11 01:57:26;;;;;;;8.13;3.35;;;2.30;99.90;;;;;;5049755;28;20677;-78
2023/03/11 01:59:58;;;;;;;7.47;3.15;;;2.20;99.90;;;;;;5055254;28;20699;-78
2023/03/11 02:02:30;;;;;;;5.85;4.10;;;2.20;99.90;;;;;;5055814;28;20203;-80
2023/03/11 02:05:01;;;;;;;5.05;3.60;;;2.20;99.90;;;;;;5046011;28;20692;-78
2023/03/11 02:07:28;;;;;;;6.47;3.22;;;2.20;99.90;;;;;;5058995;28;20200;-78
2023/03/11 02:09:55;;;;;;;7.75;3.55;;;2.20;99.90;;;;;;5048399;28;20230;-78
2023/03/11 02:12:24;;;;;;;2.85;2.33;;;2.20;99.90;;;;;;5058792;28;20202;-78
2023/03/11 02:14:53;;;;;;;7.57;2.85;;;2.10;99.90;;;;;;5053858;28;20283;-77
2023/03/11 02:17:21;;;;;;;6.80;2.97;;;2.30;99.90;;;;;;5070344;28;20234;-78
2023/03/11 02:20:12;;;;;;;7.97;4.38;;;2.20;99.90;;;;;;5068340;28;20227;-79
2023/03/11 02:22:41;;;;;;;4.28;2.45;;;2.20;99.90;;;;;;5062206;28;20244;-78
2023/03/11 02:25:17;;;;;;;10.95;5.20;;;2.20;99.90;;;;;;5064471;28;20305;-77
2023/03/11 02:27:49;;;;;;;9.10;3.40;;;2.30;99.90;;;;;;5061736;28;20211;-78
2023/03/11 02:30:17;;;;;;;18.77;4.90;;;2.20;99.90;;;;;;5059231;28;20279;-78
2023/03/11 02:32:47;;;;;;;14.85;3.70;;;2.20;99.90;;;;;;5064308;28;20244;-78
2023/03/11 02:35:15;;;;;;;9.52;3.92;;;2.00;99.90;;;;;;5063307;28;20594;-78
2023/03/11 02:37:51;;;;;;;8.43;3.63;;;2.20;99.90;;;;;;5071070;28;20232;-77
2023/03/11 02:40:47;;;;;;;11.13;4.18;;;2.30;99.90;;;;;;5060478;28;20260;-77
2023/03/11 02:43:17;;;;;;;7.60;4.15;;;2.30;99.90;;;;;;5054019;28;20207;-77
2023/03/11 02:45:46;;;;;;;10.73;4.00;;;2.30;99.90;;;;;;5063713;28;20306;-78
2023/03/11 02:48:15;;;;;;;8.70;4.05;;;2.30;99.90;;;;;;5042568;28;20698;-78
2023/03/11 02:50:47;;;;;;;12.95;4.28;;;2.30;99.90;;;;;;5061765;28;20226;-77
2023/03/11 02:53:14;;;;;;;9.25;3.80;;;2.30;99.90;;;;;;5058257;28;20517;-77
2023/03/11 02:55:41;;;;;;;8.95;3.80;;;2.30;99.90;;;;;;5061103;28;20537;-77
2023/03/11 02:58:08;;;;;;;13.95;4.35;;;2.30;99.90;;;;;;5058287;28;20235;-77
2023/03/11 03:00:37;;;;;;;8.30;3.60;;;2.20;99.90;;;;;;5048566;28;20604;-77
2023/03/11 03:03:04;;;;;;;8.65;3.20;;;2.30;99.90;;;;;;5060098;28;20249;-78
2023/03/11 03:05:31;;;;;;;12.93;4.80;;;2.20;99.90;;;;;;5061201;28;20319;-78
2023/03/11 03:07:58;;;;;;;7.63;2.90;;;2.20;99.90;;;;;;5059366;28;20291;-78
2023/03/11 03:10:25;;;;;;;9.85;2.75;;;2.10;99.90;;;;;;5060155;28;20192;-77
2023/03/11 03:12:52;;;;;;;11.38;2.83;;;2.10;99.90;;;;;;5066168;28;20199;-78
2023/03/11 03:15:19;;;;;;;6.15;2.97;;;2.00;99.90;;;;;;5057102;28;20228;-78
2023/03/11 03:17:47;;;;;;;6.05;3.25;;;1.90;99.90;;;;;;5075399;28;20261;-77
2023/03/11 03:20:14;;;;;;;9.65;2.70;;;1.90;99.90;;;;;;5067367;28;20255;-76
2023/03/11 03:22:42;;;;;;;4.00;2.00;;;1.90;99.90;;;;;;5069267;28;20287;-78
2023/03/11 03:25:10;;;;;;;13.25;2.97;;;2.00;99.90;;;;;;5063127;28;20246;-78
2023/03/11 03:27:38;;;;;;;3.50;2.25;;;2.00;99.90;;;;;;5064425;28;20234;-78
2023/03/11 03:30:06;;;;;;;8.10;2.80;;;2.10;99.90;;;;;;5062064;28;20705;-78
2023/03/11 03:32:47;;;;;;;17.50;2.85;;;2.10;99.90;;;;;;5066245;28;20674;-78
2023/03/11 03:35:13;;;;;;;8.40;4.15;;;2.10;99.90;;;;;;5075325;28;20274;-77
2023/03/11 03:37:41;;;;;;;11.45;3.65;;;2.10;99.90;;;;;;5063525;28;20294;-77
2023/03/11 03:40:09;;;;;;;11.82;4.82;;;2.10;99.90;;;;;;5069235;28;20230;-78
2023/03/11 03:42:37;;;;;;;15.50;4.97;;;2.10;99.90;;;;;;5057041;28;20196;-78
2023/03/11 03:45:04;;;;;;;8.38;3.55;;;2.20;99.90;;;;;;5064205;28;20225;-78
2023/03/11 03:47:32;;;;;;;12.20;3.63;;;2.10;99.90;;;;;;5055783;28;20262;-78
2023/03/11 03:50:00;;;;;;;6.25;2.75;;;2.10;99.90;;;;;;5066076;28;20250;-78
2023/03/11 03:52:27;;;;;;;4.55;2.50;;;2.10;99.90;;;;;;5070961;28;20232;-77
2023/03/11 03:54:54;;;;;;;5.38;2.22;;;2.10;99.90;;;;;;5060591;28;20235;-78
2023/03/11 03:57:22;;;;;;;8.52;2.30;;;2.10;99.90;;;;;;5066324;28;20260;-78
2023/03/11 03:59:49;;;;;;;9.02;2.15;;;2.10;99.90;;;;;;5071950;28;20259;-78
2023/03/11 04:02:16;;;;;;;11.10;2.25;;;2.10;99.90;;;;;;5066551;28;20202;-78
2023/03/11 04:04:43;;;;;;;9.38;3.10;;;2.20;99.90;;;;;;5067898;28;20252;-78
2023/03/11 04:07:11;;;;;;;4.05;2.15;;;2.30;99.90;;;;;;5059523;28;20214;-78
2023/03/11 04:09:39;;;;;;;9.00;2.25;;;2.20;99.90;;;;;;5069157;28;20314;-78
2023/03/11 04:12:07;;;;;;;6.88;2.42;;;2.20;99.90;;;;;;5050862;28;20287;-78
2023/03/11 04:14:34;;;;;;;5.93;2.40;;;2.20;99.90;;;;;;5060687;28;20196;-77
2023/03/11 04:17:01;;;;;;;4.35;2.40;;;2.20;99.90;;;;;;5065027;28;20621;-78
2023/03/11 04:19:28;;;;;;;9.70;3.38;;;2.20;99.90;;;;;;5071287;28;20225;-78
2023/03/11 04:21:56;;;;;;;8.18;3.00;;;2.10;99.90;;;;;;5064249;28;20287;-77
2023/03/11 04:24:24;;;;;;;7.40;3.10;;;2.20;99.90;;;;;;5068881;28;20266;-77
2023/03/11 04:26:53;;;;;;;11.30;3.38;;;2.20;99.90;;;;;;5061267;28;20294;-78
2023/03/11 04:29:20;;;;;;;13.75;3.72;;;2.20;99.90;;;;;;5057761;28;20235;-78
2023/03/11 04:31:47;;;;;;;9.38;3.38;;;2.20;99.90;;;;;;5063765;28;20793;-78
2023/03/11 04:34:14;;;;;;;10.80;3.60;;;2.10;99.90;;;;;;5057807;28;20286;-79
2023/03/11 04:36:41;;;;;;;7.47;3.80;;;2.00;99.90;;;;;;5066314;28;20286;-79
2023/03/11 04:39:08;;;;;;;9.98;3.90;;;2.00;99.90;;;;;;5062025;28;20232;-78
2023/03/11 04:41:37;;;;;;;14.10;5.03;;;1.90;99.90;;;;;;5057847;28;20200;-77
2023/03/11 04:44:04;;;;;;;11.35;4.50;;;2.00;99.90;;;;;;5058443;28;20702;-78
2023/03/11 04:46:31;;;;;;;9.88;4.15;;;1.90;99.90;;;;;;5061878;28;20242;-79
2023/03/11 04:48:58;;;;;;;8.52;3.63;;;1.90;99.90;;;;;;5063605;28;20251;-78
2023/03/11 04:51:26;;;;;;;14.20;3.90;;;1.90;99.90;;;;;;5062483;28;20202;-79
2023/03/11 04:53:53;;;;;;;7.55;3.85;;;1.90;99.90;;;;;;5064970;28;20271;-78
2023/03/11 04:56:20;;;;;;;6.95;4.00;;;1.80;99.90;;;;;;5063968;28;20214;-78
2023/03/11 04:58:49;;;;;;;7.63;3.58;;;1.70;99.90;;;;;;5067166;28;20227;-78
2023/03/11 05:01:16;;;;;;;6.03;3.53;;;1.70;99.90;;;;;;5072157;28;20200;-78
2023/03/11 05:03:43;;;;;;;11.10;3.38;;;1.70;99.90;;;;;;5074186;28;20266;-77
2023/03/11 05:06:11;;;;;;;11.90;3.80;;;1.70;99.90;;;;;;5075015;28;20244;-78
2023/03/11 05:08:39;;;;;;;13.05;4.18;;;1.80;99.90;;;;;;5060622;28;20301;-76
2023/03/11 05:11:06;;;;;;;12.57;4.30;;;1.80;99.90;;;;;;5069047;28;20262;-78
2023/03/11 05:13:36;;;;;;;8.98;4.30;;;1.80;99.90;;;;;;5062548;28;20295;-79
2023/03/11 05:16:05;;;;;;;11.90;4.60;;;1.70;99.90;;;;;;5052284;28;20202;-78
2023/03/11 05:18:32;;;;;;;5.60;2.78;;;1.70;99.90;;;;;;5068705;28;20304;-78
2023/03/11 05:20:58;;;;;;;10.18;3.17;;;1.80;99.90;;;;;;5067851;28;20282;-78
2023/03/11 05:23:26;;;;;;;9.52;3.63;;;1.80;99.90;;;;;;5063650;28;20203;-78
2023/03/11 05:25:52;;;;;;;5.13;2.33;;;1.70;99.90;;;;;;5066308;28;20278;-79
2023/03/11 05:28:19;;;;;;;7.70;2.63;;;1.70;99.90;;;;;;5061002;28;20320;-78
2023/03/11 05:30:46;;;;;;;6.18;1.90;;;1.70;99.90;;;;;;5059669;28;20654;-79
2023/03/11 05:33:15;;;;;;;7.95;3.13;;;1.60;99.90;;;;;;5079981;28;20236;-77
2023/03/11 05:35:42;;;;;;;5.38;1.80;;;1.50;99.90;;;;;;5072224;28;20205;-77
2023/03/11 05:38:09;;;;;;;8.15;2.45;;;1.40;99.90;;;;;;5082669;28;20199;-77
2023/03/11 05:40:36;;;;;;;5.72;3.35;;;1.40;99.90;;;;;;5072190;28;20252;-78
2023/03/11 05:43:03;;;;;;;3.70;2.03;;;1.30;99.90;;;;;;5067430;28;20222;-77
2023/03/11 05:45:30;;;;;;;4.10;2.15;;;1.30;99.90;;;;;;5071090;28;20215;-78
2023/03/11 05:47:58;;;;;;;9.32;2.70;;;1.30;99.90;;;;;;5061877;28;20640;-78
2023/03/11 05:50:27;;;;;;;6.50;3.22;;;1.30;99.90;;;;;;5066689;28;20252;-77
2023/03/11 05:52:54;;;;;;;5.93;2.42;;;1.20;99.90;;;;;;5061982;28;20261;-78
2023/03/11 05:55:21;;;;;;;2.92;1.35;;;1.20;99.90;;;;;;5061155;28;20259;-78
2023/03/11 05:57:51;;;;;;;8.15;2.67;;;1.20;99.90;;;;;;5066663;28;20196;-78
2023/03/11 06:00:19;;;;;;;5.13;2.17;;;1.20;99.90;;;;;;5059588;28;20243;-79
2023/03/11 06:02:46;;;;;;;4.43;1.85;;;1.30;99.90;;;;;;5060009;28;20208;-78
2023/03/11 06:05:13;;;;;;;4.53;2.17;;;1.30;99.90;;;;;;5066939;28;20310;-77
2023/03/11 06:07:43;;;;;;;11.38;2.67;;;1.30;99.90;;;;;;5081056;28;20206;-78
2023/03/11 06:10:11;;;;;;;9.10;3.42;;;1.30;99.90;;;;;;5073666;28;20223;-78
2023/03/11 06:12:39;;;;;;;6.93;2.75;;;1.30;99.90;;;;;;5075944;28;20204;-78
2023/03/11 06:15:08;;;;;;;3.90;1.98;;;1.30;99.90;;;;;;5063835;28;20257;-78
2023/03/11 06:17:35;;;;;;;7.93;3.20;;;1.40;99.90;;;;;;5062639;28;20205;-77
2023/03/11 06:20:03;;;;;;;4.63;1.85;;;1.40;99.90;;;;;;5064019;28;20248;-77
2023/03/11 06:22:30;;;;;;;12.35;3.58;;;1.40;99.90;;;;;;5054193;28;20195;-77
2023/03/11 06:24:58;;;;;;;6.93;2.83;;;1.50;99.90;;;;;;5069964;28;20310;-78
2023/03/11 06:27:25;;;;;;;5.32;2.50;;;1.60;99.90;;;;;;5058533;28;20294;-78
2023/03/11 06:29:53;;;;;;;6.13;2.00;;;1.70;99.90;;;;;;5062004;28;20223;-77
2023/03/11 06:32:20;;;;;;;4.10;1.83;;;1.80;99.90;;;;;;5061242;28;20200;-77
2023/03/11 06:34:51;;;;;;;6.65;2.92;;;1.80;99.90;;;;;;5062204;28;20206;-76
2023/03/11 06:37:22;;;;;;;6.35;2.20;;;1.80;99.90;;;;;;5059355;28;20618;-78
2023/03/11 06:39:52;;;;;;;7.15;3.85;;;1.90;99.90;;;;;;5048657;28;21033;-77
2023/03/11 06:42:22;;;;;;;8.07;1.60;;;1.80;99.90;;;;;;5060251;28;20545;-78
2023/03/11 06:44:50;;;;;;;10.77;3.20;;;1.90;99.90;;;;;;5064977;28;20199;-78
2023/03/11 06:47:17;;;;;;;8.00;3.30;;;2.10;99.90;;;;;;5068511;28;20673;-78
2023/03/11 06:49:44;;;;;;;4.15;1.60;;;2.40;99.90;;;;;;5062765;28;20215;-74
2023/03/11 06:52:11;;;;;;;2.95;1.70;;;2.70;99.90;;;;;;5048085;28;20211;-75
2023/03/11 06:54:39;;;;;;;17.52;2.47;;;3.00;99.90;;;;;;5060609;28;20199;-75
2023/03/11 06:57:07;;;;;;;6.38;2.10;;;3.10;99.90;;;;;;5065943;28;20205;-75
2023/03/11 06:59:36;;;;;;;5.63;2.10;;;3.00;99.90;;;;;;5062843;28;20272;-77
2023/03/11 07:02:04;;;;;;;8.02;1.90;;;2.80;99.90;;;;;;5056265;28;20845;-75
2023/03/11 07:04:31;;;;;;;3.72;1.50;;;2.60;99.90;;;;;;5064313;28;20206;-75
2023/03/11 07:06:58;;;;;;;3.35;1.80;;;2.50;99.90;;;;;;5055518;28;20220;-77
2023/03/11 07:09:27;;;;;;;2.63;1.85;;;2.50;99.90;;;;;;5055271;28;20265;-77
2023/03/11 07:11:54;;;;;;;7.93;2.10;;;2.50;99.90;;;;;;5063567;28;20211;-77
2023/03/11 07:14:22;;;;;;;4.03;1.80;;;2.40;99.90;;;;;;5066477;28;20214;-77
2023/03/11 07:16:50;;;;;;;3.38;1.67;;;2.90;99.90;;;;;;5065941;28;20197;-77
2023/03/11 07:19:19;;;;;;;6.10;1.80;;;4.10;99.90;;;;;;5061185;28;20289;-79
2023/03/11 07:21:46;;;;;;;4.00;2.05;;;4.60;99.90;;;;;;5056018;28;20327;-79
2023/03/11 07:24:16;;;;;;;4.18;1.98;;;4.50;99.90;;;;;;5058509;28;20657;-78
2023/03/11 07:26:43;;;;;;;8.13;2.70;;;4.40;99.90;;;;;;5060327;28;20243;-76
2023/03/11 07:29:10;;;;;;;5.07;2.22;;;4.30;99.90;;;;;;5039933;28;20646;-78
2023/03/11 07:31:37;;;;;;;3.67;1.60;;;4.60;99.90;;;;;;5058821;28;20656;-78
2023/03/11 07:34:10;;;;;;;5.20;2.55;;;5.70;99.90;;;;;;5056636;28;20546;-79
2023/03/11 07:36:39;;;;;;;3.75;1.67;;;6.90;99.90;;;;;;5045469;28;20210;-76
2023/03/11 07:39:13;;;;;;;4.70;1.73;;;7.40;99.90;;;;;;5052497;28;20584;-74
2023/03/11 07:41:40;;;;;;;4.72;2.03;;;7.30;99.90;;;;;;5061701;28;20210;-77
2023/03/11 07:44:11;;;;;;;6.03;2.70;;;7.50;99.90;;;;;;5063121;28;20194;-77
2023/03/11 07:46:38;;;;;;;3.00;2.03;;;7.90;99.90;;;;;;5057568;28;20220;-78
2023/03/11 07:49:07;;;;;;;3.95;2.00;;;9.10;99.90;;;;;;5045776;28;20258;-76
2023/03/11 07:51:36;;;;;;;3.25;1.90;;;10.00;99.50;;;;;;5063611;28;20219;-74
2023/03/11 07:54:04;;;;;;;5.60;2.03;;;10.90;95.50;;;;;;5064702;28;20279;-77
2023/03/11 07:56:33;;;;;;;4.72;1.80;;;11.60;93.50;;;;;;5055117;28;20309;-77
2023/03/11 07:59:03;;;;;;;2.42;1.35;;;12.20;91.20;;;;;;5055207;28;20265;-78
2023/03/11 08:01:35;;;;;;;5.82;1.80;;;12.70;90.00;;;;;;5051566;28;20196;-76
2023/03/11 08:04:03;;;;;;;3.53;2.05;;;13.00;87.40;;;;;;5057761;28;20206;-76
2023/03/11 08:06:34;;;;;;;9.60;2.65;;;13.10;86.20;;;;;;5066659;28;20227;-79
2023/03/11 08:09:02;;;;;;;6.88;3.80;;;13.30;85.90;;;;;;5052048;28;20250;-78
2023/03/11 08:11:31;;;;;;;5.70;2.20;;;13.60;84.40;;;;;;5054307;28;20204;-80
2023/03/11 08:14:05;;;;;;;6.15;2.10;;;13.60;83.50;;;;;;5062338;28;20210;-78
2023/03/11 08:16:32;;;;;;;7.32;2.13;;;13.60;83.90;;;;;;5062344;28;20523;-75
2023/03/11 08:19:03;;;;;;;2.58;1.50;;;13.70;83.50;;;;;;5055787;28;20251;-76
2023/03/11 08:21:31;;;;;;;8.15;1.70;;;13.70;84.00;;;;;;5063700;28;20203;-76
2023/03/11 08:24:00;;;;;;;4.57;1.48;;;13.70;83.20;;;;;;5063838;28;21591;-76
2023/03/11 08:26:27;;;;;;;5.60;1.67;;;14.10;81.10;;;;;;5064121;28;20252;-76
2023/03/11 08:28:55;;;;;;;10.68;2.10;;;14.20;81.60;;;;;;5062536;28;20246;-78
2023/03/11 08:31:24;;;;;;;4.22;1.90;;;13.90;80.70;;;;;;5062514;28;20202;-76
2023/03/11 08:33:52;;;;;;;9.32;5.30;;;14.00;83.60;;;;;;5069035;28;20217;-78
2023/03/11 08:36:20;;;;;;;4.55;1.70;;;14.40;80.00;;;;;;5070777;28;20200;-79
2023/03/11 08:38:49;;;;;;;3.65;1.80;;;14.60;80.10;;;;;;5070977;28;20228;-76
2023/03/11 08:41:16;;;;;;;4.65;2.10;;;14.60;79.60;;;;;;5058780;28;20205;-78
2023/03/11 08:43:43;;;;;;;4.85;2.17;;;14.30;79.70;;;;;;5067961;28;20235;-77
2023/03/11 08:46:26;;;;;;;3.97;2.10;;;14.10;79.70;;;;;;5048349;28;20214;-79
2023/03/11 08:48:53;;;;;;;2.90;2.20;;;14.50;79.30;;;;;;5060403;28;20318;-78
2023/03/11 08:51:21;;;;;;;4.78;2.38;;;14.30;80.00;;;;;;5063109;28;20235;-77
2023/03/11 08:53:50;;;;;;;12.77;2.80;;;14.70;79.20;;;;;;5060792;28;20234;-78
2023/03/11 08:56:17;;;;;;;8.10;2.33;;;15.20;78.40;;;;;;5064994;28;20204;-75
2023/03/11 08:58:44;;;;;;;4.43;1.90;;;15.80;77.60;;;;;;5063360;28;20530;-78
2023/03/11 09:01:13;;;;;;;3.92;1.67;;;15.90;75.70;;;;;;5074217;28;20499;-76
2023/03/11 09:03:40;;;;;;;4.97;3.23;;;16.00;76.00;;;;;;5073005;28;20194;-77
2023/03/11 09:06:11;;;;;;;3.30;2.23;;;16.20;74.70;;;;;;5069219;28;20522;-77
2023/03/11 09:08:38;;;;;;;3.87;2.23;;;16.20;75.40;;;;;;5062619;28;20480;-76
2023/03/11 09:11:06;;;;;;;6.60;2.27;;;15.70;74.80;;;;;;5058182;28;20796;-77
2023/03/11 09:13:34;;;;;;;6.60;2.23;;;15.90;74.90;;;;;;5068733;28;20940;-76
2023/03/11 09:16:01;;;;;;;8.10;6.50;;;15.20;75.80;;;;;;5064314;28;20856;-73
2023/03/11 09:18:28;;;;;;;3.67;2.37;;;16.00;74.90;;;;;;5062430;28;20472;-75
2023/03/11 09:20:57;;;;;;;6.03;2.03;;;16.30;74.70;;;;;;5052363;28;20959;-74
2023/03/11 09:23:24;;;;;;;3.00;1.97;;;16.00;73.50;;;;;;5063653;28;20907;-78
2023/03/11 09:25:54;;;;;;;5.43;2.30;;;15.90;74.60;;;;;;5073850;28;20522;-78
2023/03/11 09:28:23;;;;;;;4.97;2.10;;;15.80;74.70;;;;;;5064310;28;20473;-76
2023/03/11 09:30:51;;;;;;;4.17;2.57;;;14.90;74.20;;;;;;5065376;28;20524;-76
2023/03/11 09:33:18;;;;;;;4.40;2.03;;;14.50;75.20;;;;;;5051769;28;20462;-75
2023/03/11 09:35:45;;;;;;;6.97;3.37;;;14.90;75.90;;;;;;5059051;28;20445;-73
2023/03/11 09:38:12;;;;;;;4.03;1.77;;;14.70;77.90;;;;;;5052482;28;20538;-74
2023/03/11 09:40:57;;;;;;;8.23;2.25;;;14.70;76.40;;;;;;5056507;28;20851;-74
2023/03/11 09:43:51;;;;;;;5.83;2.43;;;14.10;76.70;;;;;;5048885;28;20565;-74
2023/03/11 09:46:36;;;;;;;3.73;1.70;;;14.50;79.70;;;;;;5064933;28;20485;-76
2023/03/11 09:49:09;;;;;;;4.82;1.95;;;14.10;76.70;;;;;;5050119;28;20485;-73
2023/03/11 09:51:41;;;;;;;9.52;2.22;;;13.90;78.10;;;;;;5051744;28;20241;-74
2023/03/11 09:54:11;;;;;;;3.17;1.70;;;13.10;79.30;;;;;;5058060;28;20223;-74
2023/03/11 09:56:40;;;;;;;4.00;1.80;;;12.60;80.00;;;;;;5060817;28;20294;-74
2023/03/11 09:59:14;;;;;;;3.67;1.60;;;12.60;82.10;;;;;;5055334;28;20254;-75
2023/03/11 10:01:44;;;;;;;4.70;1.80;;;12.70;81.90;;;;;;5065354;28;20210;-74
2023/03/11 10:04:16;;;;;;;5.68;1.80;;;12.00;80.90;;;;;;5053327;28;20204;-74
2023/03/11 10:06:46;;;;;;;2.30;1.25;;;12.40;82.80;;;;;;5064252;28;20222;-76
2023/03/11 10:09:30;;;;;;;3.88;1.90;;;12.30;83.70;;;;;;5056181;28;20310;-75
2023/03/11 10:12:14;;;;;;;5.68;2.90;;;12.60;83.70;;;;;;5054454;28;20204;-76
2023/03/11 10:14:55;;;;;;;4.38;1.95;;;12.20;83.80;;;;;;5051163;28;20228;-75
2023/03/11 10:17:40;;;;;;;4.05;1.77;;;12.60;83.80;;;;;;5051207;28;20231;-74
2023/03/11 10:20:14;;;;;;;5.57;2.38;;;12.30;82.80;;;;;;5059585;28;20251;-76
2023/03/11 10:22:52;;;;;;;3.50;1.80;;;12.00;83.30;;;;;;5061521;28;20238;-76
2023/03/11 10:25:22;;;;;;;2.70;1.65;;;11.90;84.00;;;;;;5053523;28;20195;-76
2023/03/11 10:27:53;;;;;;;4.30;2.67;;;12.20;84.70;;;;;;5055968;28;20330;-75
2023/03/11 10:30:28;;;;;;;6.38;2.17;;;12.10;83.80;;;;;;5058384;28;20231;-75
2023/03/11 10:32:59;;;;;;;6.00;1.98;;;11.90;84.70;;;;;;5056234;28;20228;-75
2023/03/11 10:35:34;;;;;;;8.23;3.67;;;11.70;84.90;;;;;;5064202;28;20477;-74
2023/03/11 10:38:11;;;;;;;6.43;2.97;;;11.30;83.70;;;;;;5057028;28;20198;-73
2023/03/11 10:40:40;;;;;;;3.97;1.98;;;11.30;85.00;;;;;;5056049;28;20262;-75
2023/03/11 10:43:14;;;;;;;7.25;3.00;;;11.30;85.50;;;;;;5051503;28;20199;-75
2023/03/11 10:45:44;;;;;;;7.97;2.70;;;11.20;85.00;;;;;;5066439;28;20202;-78
2023/03/11 10:48:14;;;;;;;7.05;2.28;;;11.60;86.30;;;;;;5052973;28;20233;-76
2023/03/11 10:50:51;;;;;;;8.98;5.63;;;11.10;85.90;;;;;;5060973;28;20283;-78
2023/03/11 10:53:19;;;;;;;7.53;3.20;;;10.60;87.60;;;;;;5053953;28;20214;-75
2023/03/11 10:55:53;;;;;;;5.88;2.55;;;10.50;88.60;;;;;;5061301;28;20204;-76
2023/03/11 10:58:22;;;;;;;10.52;2.90;;;10.00;90.30;;;;;;5059582;28;20223;-76
2023/03/11 11:01:04;;;;;;;4.50;1.85;;;9.40;91.20;;;;;;5060816;28;20207;-77
2023/03/11 11:03:32;;;;;;;7.43;2.10;;;9.50;92.00;;;;;;5077872;28;20236;-76
2023/03/11 11:06:06;;;;;;;3.42;1.80;;;9.70;93.10;;;;;;5063939;28;20653;-76
2023/03/11 11:08:34;;;;;;;6.70;2.25;;;9.70;93.20;;;;;;5054908;28;20285;-76
2023/03/11 11:11:02;;;;;;;8.00;2.20;;;9.90;93.50;;;;;;5054450;28;20208;-76
2023/03/11 11:13:33;;;;;;;6.60;2.35;;;9.70;92.90;;;;;;5054565;28;20272;-75
2023/03/11 11:16:04;;;;;;;6.05;2.42;;;9.70;92.80;;;;;;5041758;28;20243;-76
2023/03/11 11:18:35;;;;;;;4.00;2.65;;;9.70;93.40;;;;;;5061219;28;20272;-76
2023/03/11 11:21:05;;;;;;;5.82;2.03;;;9.20;93.80;;;;;;5054613;28;20204;-76
2023/03/11 11:23:37;;;;;;;6.88;2.38;;;9.00;93.30;;;;;;5046712;28;20249;-76
2023/03/11 11:26:07;;;;;;;6.68;2.05;;;8.90;94.60;;;;;;5054906;28;20195;-77
2023/03/11 11:28:36;;;;;;;4.68;1.77;;;8.90;94.60;;;;;;5055847;28;20641;-77
2023/03/11 11:31:19;;;;;;;2.28;1.80;;;8.90;95.40;;;;;;5058625;28;20206;-76
2023/03/11 11:33:51;;;;;;;13.65;2.15;;;8.80;95.40;;;;;;5060027;28;20194;-77
2023/03/11 11:36:23;;;;;;;4.15;1.80;;;8.70;94.10;;;;;;5065682;28;20198;-77
2023/03/11 11:38:52;;;;;;;5.18;1.55;;;8.40;94.80;;;;;;5056586;28;20681;-77
2023/03/11 11:41:24;;;;;;;9.43;2.63;;;8.10;94.80;;;;;;5057465;28;20235;-76
2023/03/11 11:43:53;;;;;;;5.43;2.30;;;8.40;96.10;;;;;;5051642;28;20274;-76
2023/03/11 11:46:31;;;;;;;8.85;2.60;;;8.50;95.00;;;;;;5056434;28;20658;-77
2023/03/11 11:49:05;;;;;;;6.05;1.65;;;8.60;95.20;;;;;;5056664;28;20698;-77
2023/03/11 11:51:35;;;;;;;6.82;1.92;;;8.70;95.00;;;;;;5058890;28;20199;-77
2023/03/11 11:54:11;;;;;;;9.38;1.98;;;8.60;94.60;;;;;;5059708;28;20195;-77
2023/03/11 11:56:39;;;;;;;5.50;2.30;;;8.80;95.10;;;;;;5051221;28;20223;-76
2023/03/11 11:59:15;;;;;;;6.82;2.10;;;8.90;94.00;;;;;;5056599;28;20219;-76
2023/03/11 12:01:55;;;;;;;3.50;1.92;;;8.60;94.20;;;;;;5059097;28;20195;-76
2023/03/11 12:04:46;;;;;;;3.95;1.80;;;8.40;94.80;;;;;;5062434;28;20211;-76
2023/03/11 12:07:27;;;;;;;6.15;1.85;;;8.10;94.70;;;;;;5056620;28;20247;-77
2023/03/11 12:10:01;;;;;;;5.65;1.60;;;8.20;95.40;;;;;;5057074;28;20584;-75
2023/03/11 12:12:32;;;;;;;6.85;1.80;;;8.00;95.40;;;;;;5065465;28;20222;-76
2023/03/11 12:15:10;;;;;;;4.15;2.05;;;8.10;95.90;;;;;;5061685;28;20214;-76
2023/03/11 12:17:42;;;;;;;5.65;2.05;;;8.10;95.40;;;;;;5066904;28;20199;-77
2023/03/11 12:20:14;;;;;;;4.60;1.70;;;8.00;95.10;;;;;;5066220;28;20318;-76
2023/03/11 12:23:15;;;;;;;10.23;2.08;;;8.10;95.30;;;;;;5050870;28;20253;-76
2023/03/11 12:25:53;;;;;;;2.95;1.60;;;8.10;95.70;;;;;;5060980;28;20207;-77
2023/03/11 12:28:27;;;;;;;4.25;1.80;;;8.30;95.80;;;;;;5064539;28;20592;-77
2023/03/11 12:30:57;;;;;;;2.33;1.58;;;8.10;95.10;;;;;;5057906;28;20217;-77
2023/03/11 12:33:31;;;;;;;5.75;1.60;;;8.20;96.10;;;;;;5066688;28;20199;-78
2023/03/11 12:36:00;;;;;;;3.97;1.60;;;8.20;95.30;;;;;;5057711;28;20206;-79
2023/03/11 12:38:33;;;;;;;4.50;1.75;;;7.80;95.10;;;;;;5060615;28;20249;-77
2023/03/11 12:41:08;;;;;;;4.95;2.13;;;7.70;95.60;;;;;;5063159;28;20200;-77
2023/03/11 12:44:02;;;;;;;7.40;2.13;;;7.70;95.80;;;;;;5072951;28;20230;-76
2023/03/11 12:47:09;;;;;;;6.82;2.10;;;7.60;96.70;;;;;;5044474;28;20203;-77
2023/03/11 12:49:39;;;;;;;6.80;2.38;;;7.80;97.00;;;;;;5061042;28;20219;-78
2023/03/11 12:52:19;;;;;;;2.88;1.90;;;7.70;96.80;;;;;;5068702;28;20645;-78
2023/03/11 12:54:48;;;;;;;2.80;1.85;;;7.40;96.40;;;;;;5054807;28;20265;-78
2023/03/11 12:57:36;;;;;;;10.60;1.85;;;7.50;96.80;;;;;;5060634;28;20614;-78
2023/03/11 13:00:18;;;;;;;4.40;1.25;;;7.20;96.70;;;;;;5063885;28;20257;-79
2023/03/11 13:03:15;;;;;;;4.03;1.80;;;6.90;97.10;;;;;;5059361;28;20245;-77
2023/03/11 13:05:54;;;;;;;5.43;2.00;;;6.90;97.90;;;;;;5062204;28;20613;-77
2023/03/11 13:08:23;;;;;;;10.48;2.22;;;6.80;98.50;;;;;;5057026;28;20225;-78